Time;durP1;ratioP1;P1;durP2;ratioP2;P2;SDS_P1;SDS_P2;PMS_P1;PMS_P2;Temp;Humidity;BMP_temperature;BMP_pressure;BME280_temperature;BME280_humidity;BME280_pressure;Samples;Min_cycle;Max_cycle;Signal;HPM_P1;HPM_P2
2021/10/14 00:01:42;;;;;;;7.53;4.57;;;10.20;99.90;;;;;;5031980;28;20256;-55
2021/10/14 00:04:08;;;;;;;10.40;4.43;;;10.20;99.90;;;;;;5031887;28;20262;-59
2021/10/14 00:06:35;;;;;;;5.83;3.70;;;10.20;97.20;;;;;;5031405;28;20210;-59
2021/10/14 00:09:02;;;;;;;9.33;3.80;;;10.20;1.00;;;;;;5031744;28;20563;-58
2021/10/14 00:11:28;;;;;;;7.00;3.60;;;10.20;1.00;;;;;;5031745;28;20280;-60
2021/10/14 00:13:56;;;;;;;7.03;3.00;;;10.20;1.00;;;;;;5031583;28;20297;-56
2021/10/14 00:16:23;;;;;;;6.53;2.93;;;10.20;1.00;;;;;;5031356;28;20234;-59
2021/10/14 00:18:50;;;;;;;7.37;3.20;;;10.20;99.90;;;;;;5031751;28;20206;-59
2021/10/14 00:21:16;;;;;;;5.30;2.53;;;10.20;99.90;;;;;;5031430;28;20230;-58
2021/10/14 00:23:43;;;;;;;8.07;2.93;;;10.20;99.90;;;;;;5031524;28;20252;-57
2021/10/14 00:26:10;;;;;;;4.37;3.00;;;10.20;99.90;;;;;;5031190;28;20206;-53
2021/10/14 00:28:36;;;;;;;5.83;3.03;;;10.20;99.90;;;;;;5031636;28;20206;-59
2021/10/14 00:31:04;;;;;;;7.73;3.10;;;10.20;99.90;;;;;;5031864;28;20280;-60
2021/10/14 00:33:31;;;;;;;5.83;2.80;;;10.20;99.90;;;;;;5031822;28;20264;-60
2021/10/14 00:35:58;;;;;;;6.40;3.00;;;10.20;99.90;;;;;;5031249;28;20276;-60
2021/10/14 00:38:24;;;;;;;7.83;2.87;;;10.20;99.90;;;;;;5031502;28;20213;-60
2021/10/14 00:40:51;;;;;;;7.20;3.03;;;10.30;99.90;;;;;;5031058;28;20260;-60
2021/10/14 00:43:18;;;;;;;7.67;3.40;;;10.20;99.90;;;;;;5031694;28;20214;-58
2021/10/14 00:45:44;;;;;;;8.23;3.33;;;10.20;99.90;;;;;;5031079;28;20658;-61
2021/10/14 00:48:12;;;;;;;11.00;3.73;;;10.20;99.90;;;;;;5034537;28;20206;-61
2021/10/14 00:50:39;;;;;;;8.87;3.97;;;10.20;96.20;;;;;;5035038;28;20226;-57
2021/10/14 00:53:07;;;;;;;8.47;3.73;;;10.30;99.90;;;;;;5034996;28;20215;-58
2021/10/14 00:55:35;;;;;;;8.83;4.30;;;10.20;99.90;;;;;;5034442;28;20238;-60
2021/10/14 00:58:02;;;;;;;10.03;5.00;;;10.20;99.90;;;;;;5034909;28;20213;-60
2021/10/14 01:00:29;;;;;;;7.43;4.87;;;10.20;99.90;;;;;;5034860;28;20226;-60
2021/10/14 01:02:55;;;;;;;11.30;6.60;;;10.20;99.90;;;;;;5034581;28;20671;-60
2021/10/14 01:05:23;;;;;;;9.37;7.10;;;10.20;83.80;;;;;;5034412;28;20577;-60
2021/10/14 01:07:50;;;;;;;11.83;7.10;;;10.20;85.60;;;;;;5034459;28;20710;-60
2021/10/14 01:10:17;;;;;;;12.93;7.33;;;10.20;25.50;;;;;;5034498;28;20806;-59
2021/10/14 01:12:45;;;;;;;11.77;7.10;;;10.20;99.90;;;;;;5034631;28;20739;-58
2021/10/14 01:15:17;;;;;;;12.67;7.30;;;10.20;99.90;;;;;;5034060;28;20226;-58
2021/10/14 01:17:44;;;;;;;12.33;6.87;;;10.20;99.90;;;;;;5034483;28;20256;-57
2021/10/14 01:20:12;;;;;;;12.50;6.60;;;10.20;99.90;;;;;;5034408;28;20230;-59
2021/10/14 01:22:39;;;;;;;12.17;6.60;;;10.20;93.00;;;;;;5034359;28;20203;-58
2021/10/14 01:25:07;;;;;;;14.23;7.37;;;10.20;1.00;;;;;;5034090;28;20225;-60
2021/10/14 01:27:34;;;;;;;12.90;6.90;;;10.20;1.00;;;;;;5034361;28;20670;-60
2021/10/14 01:30:01;;;;;;;13.50;6.43;;;10.20;1.00;;;;;;5034159;28;20280;-58
2021/10/14 01:32:28;;;;;;;9.77;5.83;;;10.20;14.10;;;;;;5034109;28;20256;-60
2021/10/14 01:34:54;;;;;;;10.57;6.80;;;10.20;43.00;;;;;;5033614;28;20226;-60
2021/10/14 01:37:22;;;;;;;12.97;6.67;;;10.20;1.00;;;;;;5034353;28;20237;-60
2021/10/14 01:39:49;;;;;;;12.73;6.70;;;10.20;5.50;;;;;;5034159;28;20234;-58
2021/10/14 01:42:15;;;;;;;12.57;7.13;;;10.20;50.20;;;;;;5034182;28;20268;-58
2021/10/14 01:44:43;;;;;;;12.73;6.93;;;10.10;99.90;;;;;;5033571;28;20206;-57
2021/10/14 01:47:09;;;;;;;16.40;8.30;;;10.20;99.90;;;;;;5033860;28;20207;-60
2021/10/14 01:49:36;;;;;;;13.33;8.23;;;10.10;99.90;;;;;;5033714;28;20226;-60
2021/10/14 01:52:03;;;;;;;16.87;8.90;;;10.10;99.90;;;;;;5034066;28;20206;-60
2021/10/14 01:54:31;;;;;;;17.43;8.90;;;10.10;1.00;;;;;;5033806;28;20260;-61
2021/10/14 01:56:58;;;;;;;18.73;9.17;;;10.00;1.00;;;;;;5033557;28;20226;-58
2021/10/14 01:59:24;;;;;;;16.53;10.03;;;10.00;99.90;;;;;;5032588;28;20226;-60
2021/10/14 02:01:51;;;;;;;14.00;8.97;;;9.90;5.70;;;;;;5033680;28;20210;-60
2021/10/14 02:04:18;;;;;;;15.67;9.50;;;9.90;99.90;;;;;;5033381;28;20214;-59
2021/10/14 02:06:44;;;;;;;16.63;10.20;;;9.90;45.70;;;;;;5033450;28;20575;-60
2021/10/14 02:09:11;;;;;;;21.67;10.77;;;9.80;1.00;;;;;;5033485;28;20775;-60
2021/10/14 02:11:39;;;;;;;17.43;10.47;;;9.80;99.90;;;;;;5033529;28;20206;-59
2021/10/14 02:14:06;;;;;;;15.73;10.83;;;9.80;99.90;;;;;;5033532;28;20233;-58
2021/10/14 02:16:32;;;;;;;21.80;11.53;;;9.70;99.90;;;;;;5032767;28;20229;-60
2021/10/14 02:18:59;;;;;;;20.10;11.10;;;9.70;99.90;;;;;;5033315;28;20671;-59
2021/10/14 02:21:26;;;;;;;16.77;10.87;;;9.60;99.90;;;;;;5033157;28;20734;-60
2021/10/14 02:23:52;;;;;;;16.60;10.53;;;9.60;1.00;;;;;;5033424;28;20214;-58
2021/10/14 02:26:19;;;;;;;23.00;11.70;;;9.60;1.00;;;;;;5032848;28;20259;-61
2021/10/14 02:28:47;;;;;;;17.37;11.87;;;9.50;99.90;;;;;;5033188;28;20630;-59
2021/10/14 02:31:14;;;;;;;19.83;12.37;;;9.50;1.00;;;;;;5033170;28;20765;-57
2021/10/14 02:33:40;;;;;;;18.10;12.43;;;9.40;1.00;;;;;;5033180;28;20674;-57
2021/10/14 02:36:07;;;;;;;22.70;11.53;;;9.40;99.90;;;;;;5033034;28;20303;-59
2021/10/14 02:38:34;;;;;;;22.50;12.73;;;9.40;99.90;;;;;;5032929;28;20260;-60
2021/10/14 02:41:02;;;;;;;19.23;11.83;;;9.30;99.90;;;;;;5032928;28;20280;-58
2021/10/14 02:43:29;;;;;;;19.43;12.43;;;9.30;99.90;;;;;;5032919;28;20230;-58
2021/10/14 02:45:57;;;;;;;23.07;13.23;;;9.20;99.90;;;;;;5032378;28;20260;-60
2021/10/14 02:48:23;;;;;;;23.40;14.03;;;9.20;1.00;;;;;;5032705;28;20217;-60
2021/10/14 02:50:50;;;;;;;21.37;13.30;;;9.10;1.00;;;;;;5032806;28;20635;-58
2021/10/14 02:53:17;;;;;;;23.13;14.20;;;9.00;1.00;;;;;;5032841;28;20214;-58
2021/10/14 02:55:44;;;;;;;28.70;15.63;;;8.90;1.00;;;;;;5032234;28;20272;-59
2021/10/14 02:58:11;;;;;;;28.60;15.13;;;8.80;1.00;;;;;;5032775;28;20239;-57
2021/10/14 03:00:37;;;;;;;25.43;15.17;;;8.90;15.90;;;;;;5032379;28;20296;-59
2021/10/14 03:03:05;;;;;;;26.17;15.17;;;8.90;29.90;;;;;;5032852;28;20233;-58
2021/10/14 03:05:32;;;;;;;25.23;16.27;;;8.90;34.50;;;;;;5032302;28;20205;-59
2021/10/14 03:07:58;;;;;;;27.60;16.10;;;8.80;44.00;;;;;;5032478;28;20744;-58
2021/10/14 03:10:25;;;;;;;27.27;16.17;;;8.90;66.10;;;;;;5032257;28;20236;-59
2021/10/14 03:12:52;;;;;;;25.60;16.27;;;8.90;75.40;;;;;;5032203;28;20742;-59
2021/10/14 03:15:19;;;;;;;28.20;16.30;;;8.80;92.30;;;;;;5031808;28;20299;-59
2021/10/14 03:17:46;;;;;;;30.80;17.40;;;8.80;98.80;;;;;;5032396;28;20207;-59
2021/10/14 03:20:14;;;;;;;31.70;17.53;;;8.80;99.90;;;;;;5032416;28;20287;-60
2021/10/14 03:22:40;;;;;;;29.07;16.80;;;8.80;99.90;;;;;;5032305;28;20212;-58
2021/10/14 03:25:08;;;;;;;31.27;17.40;;;8.80;99.90;;;;;;5032031;28;20208;-55
2021/10/14 03:27:35;;;;;;;28.90;17.97;;;8.80;99.90;;;;;;5031993;28;20213;-60
2021/10/14 03:30:01;;;;;;;30.13;17.60;;;8.80;99.90;;;;;;5032167;28;20234;-58
2021/10/14 03:32:28;;;;;;;34.50;18.67;;;8.90;99.90;;;;;;5032105;28;20219;-57
2021/10/14 03:34:54;;;;;;;33.73;19.87;;;8.90;99.90;;;;;;5031725;28;20211;-59
2021/10/14 03:37:22;;;;;;;29.93;17.73;;;8.90;99.90;;;;;;5031853;28;20251;-59
2021/10/14 03:39:49;;;;;;;32.83;17.70;;;9.00;99.90;;;;;;5031579;28;20239;-58
2021/10/14 03:42:16;;;;;;;31.97;18.13;;;9.00;99.90;;;;;;5032178;28;20212;-59
2021/10/14 03:44:43;;;;;;;28.50;18.77;;;9.00;99.90;;;;;;5031561;28;20214;-59
2021/10/14 03:47:10;;;;;;;30.13;18.43;;;9.10;99.90;;;;;;5032101;28;20204;-55
2021/10/14 03:49:37;;;;;;;31.50;17.90;;;9.10;99.90;;;;;;5031817;28;20286;-60
2021/10/14 03:52:04;;;;;;;27.83;17.43;;;9.10;99.90;;;;;;5031892;28;20275;-60
2021/10/14 03:54:32;;;;;;;36.77;20.30;;;9.10;99.90;;;;;;5031825;28;20209;-60
2021/10/14 03:56:59;;;;;;;37.03;20.50;;;9.20;99.90;;;;;;5031867;28;20230;-59
2021/10/14 03:59:25;;;;;;;35.97;22.10;;;9.20;99.90;;;;;;5031636;28;20229;-60
2021/10/14 04:01:52;;;;;;;36.10;21.13;;;9.20;99.90;;;;;;5031811;28;20217;-59
2021/10/14 04:04:19;;;;;;;34.93;20.87;;;9.30;99.90;;;;;;5031761;28;20753;-57
2021/10/14 04:06:45;;;;;;;36.60;20.33;;;9.30;99.90;;;;;;5031335;28;20260;-60
2021/10/14 04:09:12;;;;;;;34.27;20.23;;;9.40;99.90;;;;;;5031527;28;20210;-58
2021/10/14 04:11:40;;;;;;;42.23;22.13;;;9.40;90.60;;;;;;5031991;28;20206;-60
2021/10/14 04:14:07;;;;;;;38.73;23.27;;;9.40;91.00;;;;;;5031718;28;20202;-59
2021/10/14 04:16:33;;;;;;;39.47;22.30;;;9.40;90.00;;;;;;5027869;28;20881;-59
2021/10/14 04:19:00;;;;;;;39.83;22.73;;;9.40;91.10;;;;;;5031390;28;20265;-60
2021/10/14 04:21:26;;;;;;;43.67;24.13;;;9.40;90.30;;;;;;5031882;28;20246;-59
2021/10/14 04:23:55;;;;;;;42.13;23.87;;;9.50;97.80;;;;;;5035182;28;20732;-59
2021/10/14 04:26:22;;;;;;;49.00;26.87;;;9.40;98.20;;;;;;5035279;28;20208;-57
2021/10/14 04:28:50;;;;;;;50.63;26.67;;;9.40;99.90;;;;;;5035618;28;20210;-57
2021/10/14 04:31:17;;;;;;;46.80;27.33;;;9.50;99.90;;;;;;5044818;28;20230;-58
2021/10/14 04:33:44;;;;;;;55.27;26.93;;;9.50;99.90;;;;;;5034907;28;20264;-63
2021/10/14 04:36:10;;;;;;;68.33;29.07;;;9.50;99.90;;;;;;5039059;28;20260;-59
2021/10/14 04:38:37;;;;;;;61.60;30.13;;;9.50;99.90;;;;;;5035066;28;20268;-59
2021/10/14 04:41:04;;;;;;;63.17;29.27;;;9.60;99.90;;;;;;5034662;28;20303;-59
2021/10/14 04:43:31;;;;;;;61.70;31.03;;;9.60;99.90;;;;;;5035012;28;20215;-59
2021/10/14 04:45:59;;;;;;;67.83;32.77;;;9.60;99.90;;;;;;5034384;28;20260;-59
2021/10/14 04:48:26;;;;;;;68.00;31.27;;;9.60;99.90;;;;;;5034972;28;20202;-59
2021/10/14 04:50:52;;;;;;;71.00;31.53;;;9.60;99.90;;;;;;5034389;28;20263;-59
2021/10/14 04:53:19;;;;;;;72.53;32.50;;;9.70;99.90;;;;;;5034846;28;20268;-59
2021/10/14 04:55:46;;;;;;;70.40;31.70;;;9.70;99.90;;;;;;5034525;28;20267;-59
2021/10/14 04:58:12;;;;;;;71.30;32.90;;;9.70;99.90;;;;;;5034628;28;20281;-58
2021/10/14 05:00:39;;;;;;;75.20;33.73;;;9.70;99.90;;;;;;5034393;28;20292;-59
2021/10/14 05:03:07;;;;;;;69.30;34.57;;;9.70;99.90;;;;;;5034496;28;20206;-59
2021/10/14 05:05:33;;;;;;;66.33;33.60;;;9.70;99.90;;;;;;5034047;28;20268;-58
2021/10/14 05:08:00;;;;;;;72.67;33.93;;;9.80;99.90;;;;;;5034646;28;20206;-59
2021/10/14 05:10:27;;;;;;;73.33;33.97;;;9.80;99.90;;;;;;5034354;28;20284;-59
2021/10/14 05:12:53;;;;;;;80.43;33.60;;;9.80;99.90;;;;;;5034515;28;20213;-59
2021/10/14 05:15:20;;;;;;;74.27;34.43;;;9.80;99.90;;;;;;5033940;28;20210;-59
2021/10/14 05:17:47;;;;;;;77.50;35.37;;;9.80;99.90;;;;;;5034038;28;20235;-62
2021/10/14 05:20:15;;;;;;;73.87;34.90;;;9.80;99.90;;;;;;5032899;28;20785;-61
2021/10/14 05:22:41;;;;;;;76.70;35.70;;;9.80;99.90;;;;;;5034194;28;20724;-59
2021/10/14 05:25:09;;;;;;;71.43;35.23;;;9.80;99.90;;;;;;5034181;28;20214;-57
2021/10/14 05:27:36;;;;;;;70.70;36.00;;;9.80;99.90;;;;;;5034128;28;20213;-58
2021/10/14 05:30:03;;;;;;;77.33;34.13;;;9.80;99.90;;;;;;5034106;28;20230;-60
2021/10/14 05:32:30;;;;;;;68.30;34.43;;;9.80;99.90;;;;;;5033846;28;20236;-60
2021/10/14 05:34:59;;;;;;;66.60;33.20;;;9.80;99.90;;;;;;5033995;28;20210;-57
2021/10/14 05:37:27;;;;;;;72.10;33.30;;;9.80;99.90;;;;;;5034026;28;20621;-59
2021/10/14 05:39:53;;;;;;;72.93;34.47;;;9.80;99.90;;;;;;5033787;28;20285;-60
2021/10/14 05:42:20;;;;;;;69.80;34.37;;;9.80;99.90;;;;;;5033829;28;20690;-59
2021/10/14 05:44:47;;;;;;;68.77;35.17;;;9.80;99.90;;;;;;5033507;28;20210;-60
2021/10/14 05:47:13;;;;;;;70.77;34.37;;;9.80;99.90;;;;;;5033798;28;20202;-57
2021/10/14 05:49:40;;;;;;;68.53;35.37;;;9.80;99.90;;;;;;5033628;28;20785;-60
2021/10/14 05:52:07;;;;;;;63.20;34.33;;;9.80;99.90;;;;;;5033973;28;20206;-60
2021/10/14 05:54:35;;;;;;;69.73;35.70;;;9.90;96.20;;;;;;5033342;28;20214;-59
2021/10/14 05:57:01;;;;;;;77.03;36.07;;;9.80;89.20;;;;;;5033802;28;20651;-59
2021/10/14 05:59:28;;;;;;;75.07;34.83;;;9.80;78.60;;;;;;5033368;28;20646;-60
2021/10/14 06:01:55;;;;;;;60.20;33.00;;;9.80;69.00;;;;;;5033921;28;20284;-59
2021/10/14 06:04:22;;;;;;;65.07;33.53;;;9.80;38.80;;;;;;5033809;28;20202;-59
2021/10/14 06:06:48;;;;;;;64.40;33.43;;;9.80;18.00;;;;;;5032798;28;20671;-60
2021/10/14 06:09:15;;;;;;;58.20;31.37;;;9.80;12.10;;;;;;5026602;28;20214;-60
2021/10/14 06:11:43;;;;;;;66.93;33.00;;;9.70;1.00;;;;;;5032864;28;20249;-62
2021/10/14 06:14:10;;;;;;;61.57;32.50;;;9.70;1.00;;;;;;5032777;28;20206;-61
2021/10/14 06:16:37;;;;;;;61.60;32.50;;;9.60;1.00;;;;;;5032598;28;20226;-60
2021/10/14 06:19:03;;;;;;;62.50;31.63;;;9.70;1.00;;;;;;5031722;28;20280;-61
2021/10/14 06:21:30;;;;;;;59.83;31.67;;;9.60;1.00;;;;;;5032896;28;20214;-62
2021/10/14 06:23:57;;;;;;;58.20;31.20;;;9.70;1.00;;;;;;5032663;28;20210;-61
2021/10/14 06:26:23;;;;;;;57.93;30.47;;;9.70;1.00;;;;;;5032517;28;20252;-62
2021/10/14 06:28:51;;;;;;;58.60;31.00;;;9.70;1.00;;;;;;5031747;28;20260;-61
2021/10/14 06:31:19;;;;;;;58.57;31.00;;;9.70;1.00;;;;;;5032585;28;20230;-63
2021/10/14 06:33:45;;;;;;;56.77;29.50;;;9.80;1.00;;;;;;5032505;28;20870;-60
2021/10/14 06:36:12;;;;;;;52.30;29.97;;;9.70;1.00;;;;;;5032181;28;20217;-60
2021/10/14 06:38:39;;;;;;;57.13;30.60;;;9.70;1.00;;;;;;5032178;28;20214;-60
2021/10/14 06:41:05;;;;;;;60.53;30.27;;;9.70;1.00;;;;;;5048551;28;20233;-61
2021/10/14 06:43:32;;;;;;;55.27;30.40;;;9.70;1.00;;;;;;5052615;28;20210;-62
2021/10/14 06:46:00;;;;;;;56.23;28.17;;;9.70;1.00;;;;;;5051487;28;20209;-61
2021/10/14 06:48:27;;;;;;;49.00;26.90;;;9.70;1.00;;;;;;5052038;28;20201;-61
2021/10/14 06:50:54;;;;;;;49.60;27.97;;;9.80;1.00;;;;;;5051570;28;20252;-65
2021/10/14 06:53:20;;;;;;;46.33;28.07;;;9.70;1.00;;;;;;5051876;28;20685;-65
2021/10/14 06:55:47;;;;;;;56.37;28.23;;;9.70;1.00;;;;;;5051678;28;20678;-63
2021/10/14 06:58:13;;;;;;;57.90;29.93;;;9.60;1.00;;;;;;5051624;28;20237;-64
2021/10/14 07:00:40;;;;;;;53.13;26.80;;;9.60;23.00;;;;;;5051896;28;20240;-63
2021/10/14 07:03:08;;;;;;;55.43;27.83;;;9.60;63.60;;;;;;5051851;28;20659;-64
2021/10/14 07:05:35;;;;;;;54.43;27.70;;;9.60;98.70;;;;;;5051725;28;20232;-62
2021/10/14 07:08:02;;;;;;;56.03;28.93;;;9.50;99.90;;;;;;5051588;28;20202;-62
2021/10/14 07:10:29;;;;;;;58.67;29.97;;;9.60;99.90;;;;;;5051266;28;20225;-61
2021/10/14 07:12:56;;;;;;;56.23;29.00;;;9.60;99.90;;;;;;5051722;28;20212;-62
2021/10/14 07:15:22;;;;;;;59.67;29.37;;;9.60;99.90;;;;;;5051424;28;20589;-62
2021/10/14 07:17:49;;;;;;;56.07;29.80;;;9.70;99.90;;;;;;5051655;28;20363;-67
2021/10/14 07:20:17;;;;;;;54.70;29.07;;;9.60;99.90;;;;;;5051307;28;20237;-64
2021/10/14 07:22:44;;;;;;;56.07;31.37;;;9.60;99.90;;;;;;5051660;28;20890;-64
2021/10/14 07:25:11;;;;;;;64.97;31.20;;;9.60;99.90;;;;;;5050854;28;20677;-61
2021/10/14 07:27:37;;;;;;;65.87;30.30;;;9.70;99.90;;;;;;5051666;28;20224;-61
2021/10/14 07:30:06;;;;;;;53.33;28.23;;;9.70;99.90;;;;;;5051131;28;20225;-62
2021/10/14 07:32:33;;;;;;;53.87;28.00;;;9.70;99.90;;;;;;5051517;28;20240;-62
2021/10/14 07:34:59;;;;;;;47.13;25.40;;;9.70;99.90;;;;;;5050910;28;20287;-62
2021/10/14 07:37:27;;;;;;;47.90;26.23;;;9.70;99.90;;;;;;5051132;28;20599;-60
2021/10/14 07:39:54;;;;;;;47.43;25.97;;;9.70;99.90;;;;;;5051072;28;21386;-60
2021/10/14 07:42:21;;;;;;;50.60;25.33;;;9.70;99.90;;;;;;5051514;28;20205;-60
2021/10/14 07:44:47;;;;;;;48.47;25.43;;;9.80;99.90;;;;;;5050902;28;20210;-60
2021/10/14 07:47:14;;;;;;;45.57;25.40;;;9.80;99.90;;;;;;5051301;28;20210;-60
2021/10/14 07:49:41;;;;;;;76.37;35.67;;;9.90;99.90;;;;;;5050581;28;20256;-63
2021/10/14 07:52:08;;;;;;;75.83;36.17;;;9.90;99.90;;;;;;5051108;28;20205;-61
2021/10/14 07:54:36;;;;;;;65.10;31.23;;;10.00;99.90;;;;;;5050821;28;20658;-61
2021/10/14 07:57:03;;;;;;;61.47;30.20;;;10.00;99.90;;;;;;5052923;28;20238;-61
2021/10/14 07:59:30;;;;;;;60.43;29.60;;;10.10;99.90;;;;;;5054835;28;20221;-61
2021/10/14 08:01:56;;;;;;;71.30;33.83;;;10.00;99.90;;;;;;5055457;28;20212;-62
2021/10/14 08:04:23;;;;;;;78.73;34.50;;;10.00;99.90;;;;;;5055390;28;20209;-61
2021/10/14 08:06:49;;;;;;;73.73;34.93;;;10.00;99.90;;;;;;5054817;28;20202;-60
2021/10/14 08:09:16;;;;;;;71.57;32.77;;;10.10;99.90;;;;;;5054864;28;20603;-61
2021/10/14 08:11:44;;;;;;;72.50;32.27;;;10.10;99.90;;;;;;5055054;28;20213;-61
2021/10/14 08:14:12;;;;;;;67.63;31.63;;;10.10;99.90;;;;;;5055344;28;20217;-59
2021/10/14 08:16:39;;;;;;;74.07;32.43;;;10.10;99.90;;;;;;5054812;28;20307;-61
2021/10/14 08:19:06;;;;;;;75.30;33.33;;;10.10;99.90;;;;;;5054249;28;20212;-61
2021/10/14 08:21:32;;;;;;;76.47;33.80;;;10.10;99.90;;;;;;5055344;28;20209;-61
2021/10/14 08:23:59;;;;;;;79.37;35.23;;;10.20;99.90;;;;;;5055101;28;20816;-62
2021/10/14 08:26:26;;;;;;;90.87;35.10;;;10.20;99.90;;;;;;5054822;28;20206;-66
2021/10/14 08:28:54;;;;;;;86.37;36.57;;;10.20;99.90;;;;;;5054346;28;20278;-66
2021/10/14 08:31:21;;;;;;;93.10;37.27;;;10.20;99.90;;;;;;5054596;28;20233;-63
2021/10/14 08:33:48;;;;;;;83.63;35.07;;;10.20;99.90;;;;;;5054625;28;20209;-62
2021/10/14 08:36:15;;;;;;;84.93;36.57;;;10.20;99.90;;;;;;5054870;28;20209;-61
2021/10/14 08:38:42;;;;;;;91.20;37.63;;;10.30;99.90;;;;;;5054507;28;20661;-60
2021/10/14 08:41:09;;;;;;;85.47;37.70;;;10.30;99.90;;;;;;5053846;28;20234;-60
2021/10/14 08:43:39;;;;;;;94.60;37.70;;;10.20;99.90;;;;;;5054754;28;20205;-62
2021/10/14 08:46:08;;;;;;;84.27;36.90;;;10.20;99.90;;;;;;5054196;28;20201;-64
2021/10/14 08:48:36;;;;;;;81.43;35.07;;;10.30;99.90;;;;;;5054049;28;20218;-62
2021/10/14 08:51:03;;;;;;;82.67;36.90;;;10.30;99.90;;;;;;5053775;28;20240;-63
2021/10/14 08:53:29;;;;;;;73.93;35.33;;;10.40;99.90;;;;;;5054510;28;20213;-62
2021/10/14 08:55:56;;;;;;;78.70;33.93;;;10.50;99.90;;;;;;5054284;28;20217;-63
2021/10/14 08:58:23;;;;;;;77.73;32.30;;;10.50;99.90;;;;;;5054043;28;20225;-62
2021/10/14 09:01:21;;;;;;;73.37;32.70;;;10.50;99.90;;;;;;5053391;28;20279;-65
2021/10/14 09:03:49;;;;;;;65.10;31.33;;;10.50;99.90;;;;;;4992475;28;20196;-64
2021/10/14 09:06:18;;;;;;;64.73;31.83;;;10.50;99.90;;;;;;5040049;28;20232;-65
2021/10/14 09:08:46;;;;;;;60.60;30.13;;;10.50;99.90;;;;;;5053257;28;20212;-63
2021/10/14 09:11:17;;;;;;;61.77;29.13;;;10.50;99.90;;;;;;5053230;28;20229;-60
2021/10/14 09:13:47;;;;;;;56.20;29.37;;;10.50;99.90;;;;;;5054243;28;20210;-61
2021/10/14 09:16:27;;;;;;;57.03;30.40;;;10.60;99.90;;;;;;5053687;28;20647;-61
2021/10/14 09:18:53;;;;;;;63.40;30.80;;;10.60;99.90;;;;;;5053304;28;20291;-62
2021/10/14 09:21:26;;;;;;;56.53;30.30;;;10.50;99.90;;;;;;5053338;28;20240;-61
2021/10/14 09:23:53;;;;;;;58.13;30.47;;;10.60;99.90;;;;;;5053993;28;20206;-61
2021/10/14 09:26:31;;;;;;;61.10;30.80;;;10.60;99.90;;;;;;5053830;28;20186;-62
2021/10/14 09:29:09;;;;;;;66.70;32.30;;;10.60;99.90;;;;;;5053093;28;20205;-60
2021/10/14 09:31:49;;;;;;;68.23;34.17;;;10.50;99.90;;;;;;5053665;28;20626;-67
2021/10/14 09:34:28;;;;;;;67.17;34.47;;;10.60;99.90;;;;;;5053344;28;20210;-61
2021/10/14 09:36:56;;;;;;;70.63;32.47;;;10.60;99.90;;;;;;5053269;28;20409;-63
2021/10/14 09:39:22;;;;;;;75.07;35.97;;;10.60;99.90;;;;;;5052546;28;20290;-62
2021/10/14 09:41:49;;;;;;;88.63;38.90;;;10.70;99.90;;;;;;5053431;28;20263;-61
2021/10/14 09:44:17;;;;;;;86.97;40.23;;;10.70;99.90;;;;;;5053354;28;20213;-62
2021/10/14 09:46:45;;;;;;;76.53;36.00;;;10.70;99.90;;;;;;5052867;28;20234;-61
2021/10/14 09:49:14;;;;;;;84.77;39.27;;;10.70;99.90;;;;;;5052868;28;20209;-62
2021/10/14 09:51:43;;;;;;;86.90;38.63;;;10.80;99.90;;;;;;5053034;28;20206;-63
2021/10/14 09:54:10;;;;;;;87.27;39.33;;;10.80;99.90;;;;;;5053499;28;20300;-63
2021/10/14 09:56:37;;;;;;;87.60;39.00;;;10.90;99.90;;;;;;5052909;28;20209;-63
2021/10/14 09:59:04;;;;;;;83.13;39.50;;;10.90;99.90;;;;;;5052368;28;20783;-62
2021/10/14 10:01:32;;;;;;;88.07;40.10;;;10.90;99.90;;;;;;5052612;28;20236;-63
2021/10/14 10:04:03;;;;;;;91.73;41.17;;;10.90;99.90;;;;;;5053077;28;20692;-62
2021/10/14 10:06:33;;;;;;;81.67;38.83;;;11.00;99.90;;;;;;5053013;28;20288;-61
2021/10/14 10:09:05;;;;;;;71.43;35.70;;;11.00;99.90;;;;;;5052388;28;20232;-62
2021/10/14 10:11:38;;;;;;;85.93;39.93;;;11.00;99.90;;;;;;5052980;28;20292;-61
2021/10/14 10:14:05;;;;;;;76.33;37.97;;;11.00;99.90;;;;;;5052924;28;20297;-59
2021/10/14 10:16:32;;;;;;;72.47;36.63;;;11.00;81.10;;;;;;5055337;28;20271;-64
2021/10/14 10:19:00;;;;;;;76.50;38.83;;;11.10;42.80;;;;;;5052392;28;20268;-63
2021/10/14 10:21:42;;;;;;;70.67;37.60;;;11.10;55.20;;;;;;5052540;28;20734;-64
2021/10/14 10:24:31;;;;;;;73.00;37.23;;;11.10;45.60;;;;;;5052550;28;20213;-66
2021/10/14 10:27:06;;;;;;;77.40;37.80;;;11.20;60.00;;;;;;5052513;28;20300;-66
2021/10/14 10:29:47;;;;;;;73.13;37.77;;;11.20;50.20;;;;;;5052172;28;20259;-63
2021/10/14 10:32:18;;;;;;;74.37;38.77;;;11.20;53.30;;;;;;5052544;28;20267;-62
2021/10/14 10:34:49;;;;;;;72.83;37.43;;;11.20;19.90;;;;;;5051961;28;20209;-61
2021/10/14 10:37:21;;;;;;;68.87;36.97;;;11.30;15.10;;;;;;5052576;28;20239;-62
2021/10/14 10:39:50;;;;;;;62.77;37.10;;;11.30;1.00;;;;;;5051782;28;20233;-62
2021/10/14 10:42:19;;;;;;;66.87;36.30;;;11.30;1.00;;;;;;5052455;28;20201;-62
2021/10/14 10:44:47;;;;;;;68.63;35.43;;;11.40;1.00;;;;;;5051982;28;20209;-61
2021/10/14 10:47:41;;;;;;;61.77;36.50;;;11.30;1.00;;;;;;5052093;28;20593;-61
2021/10/14 10:50:10;;;;;;;64.57;34.37;;;11.40;1.00;;;;;;5051741;28;20237;-62
2021/10/14 10:52:41;;;;;;;61.77;35.90;;;11.40;1.00;;;;;;5052249;28;20670;-62
2021/10/14 10:55:33;;;;;;;55.10;33.07;;;11.40;1.00;;;;;;5051743;28;20205;-67
2021/10/14 10:58:00;;;;;;;59.00;34.30;;;11.40;1.00;;;;;;5051846;28;20221;-64
2021/10/14 11:00:28;;;;;;;65.13;35.80;;;11.40;1.00;;;;;;5051777;28;20233;-64
2021/10/14 11:03:08;;;;;;;56.67;32.70;;;11.50;1.00;;;;;;5051759;28;20674;-62
2021/10/14 11:05:40;;;;;;;53.30;32.07;;;11.60;1.00;;;;;;5051447;28;20688;-61
2021/10/14 11:08:10;;;;;;;53.97;32.77;;;11.60;1.00;;;;;;5051511;28;20241;-62
2021/10/14 11:10:36;;;;;;;59.37;33.17;;;11.50;1.00;;;;;;5051669;28;20225;-60
2021/10/14 11:13:03;;;;;;;51.07;29.83;;;11.60;1.00;;;;;;5051802;28;20263;-57
2021/10/14 11:15:30;;;;;;;46.73;28.83;;;11.60;1.00;;;;;;5051617;28;20217;-61
2021/10/14 11:18:01;;;;;;;47.87;29.03;;;11.60;1.00;;;;;;5051273;28;20223;-59
2021/10/14 11:20:28;;;;;;;53.70;30.03;;;11.60;1.00;;;;;;5051136;28;20721;-57
2021/10/14 11:23:02;;;;;;;44.43;28.20;;;11.70;1.00;;;;;;5051550;28;20205;-55
2021/10/14 11:25:30;;;;;;;47.23;28.67;;;11.80;1.00;;;;;;5011911;28;20211;-63
2021/10/14 11:28:04;;;;;;;43.63;27.10;;;11.70;99.90;;;;;;5011762;28;20209;-62
2021/10/14 11:30:40;;;;;;;42.13;26.30;;;11.80;99.90;;;;;;5011511;28;20232;-61
2021/10/14 11:33:12;;;;;;;43.63;27.40;;;11.80;99.90;;;;;;5011904;28;20223;-61
2021/10/14 11:35:39;;;;;;;41.63;25.50;;;11.80;99.90;;;;;;5011616;28;20586;-62
2021/10/14 11:38:08;;;;;;;35.87;23.33;;;11.90;99.90;;;;;;5011723;28;20226;-59
2021/10/14 11:40:36;;;;;;;37.17;24.00;;;11.90;99.90;;;;;;5011365;28;20302;-61
2021/10/14 11:43:03;;;;;;;35.93;23.83;;;12.00;99.90;;;;;;5013633;28;20203;-62
2021/10/14 11:45:30;;;;;;;45.07;24.37;;;12.10;99.90;;;;;;5031013;28;20233;-62
2021/10/14 11:47:56;;;;;;;35.40;23.10;;;12.10;99.90;;;;;;5031446;28;20268;-61
2021/10/14 11:50:25;;;;;;;32.87;21.23;;;12.20;1.00;;;;;;5031286;28;20226;-61
2021/10/14 11:53:02;;;;;;;30.63;21.33;;;12.30;1.00;;;;;;5031283;28;20209;-61
2021/10/14 11:55:29;;;;;;;31.30;20.63;;;12.40;99.90;;;;;;5031101;28;20210;-61
2021/10/14 11:58:04;;;;;;;32.87;20.43;;;12.40;99.90;;;;;;5030472;28;20206;-60
2021/10/14 12:00:31;;;;;;;32.60;21.03;;;12.50;92.60;;;;;;5031005;28;20225;-61
2021/10/14 12:02:59;;;;;;;31.37;19.33;;;12.50;1.00;;;;;;5031209;28;20206;-59
2021/10/14 12:05:26;;;;;;;29.13;18.67;;;12.50;1.00;;;;;;5030833;28;20220;-61
2021/10/14 12:07:56;;;;;;;31.50;18.80;;;12.60;99.90;;;;;;5031202;28;20214;-60
2021/10/14 12:10:35;;;;;;;25.97;17.60;;;12.70;99.90;;;;;;5030685;28;20737;-61
2021/10/14 12:13:05;;;;;;;25.27;16.97;;;12.80;70.30;;;;;;5011271;28;20234;-60
2021/10/14 12:15:31;;;;;;;26.10;17.23;;;12.80;99.90;;;;;;5011302;28;20209;-63
2021/10/14 12:17:58;;;;;;;24.17;16.50;;;12.90;99.90;;;;;;5024574;28;20218;-64
2021/10/14 12:20:26;;;;;;;24.30;16.40;;;13.00;1.00;;;;;;5030668;28;20285;-64
2021/10/14 12:22:55;;;;;;;25.73;15.80;;;13.00;99.90;;;;;;5030912;28;20213;-60
2021/10/14 12:25:24;;;;;;;20.73;14.97;;;13.00;59.90;;;;;;5030974;28;20213;-60
2021/10/14 12:27:52;;;;;;;22.57;15.27;;;13.00;99.90;;;;;;5030994;28;20210;-59
2021/10/14 12:30:27;;;;;;;21.17;15.07;;;13.10;99.90;;;;;;5030748;28;20225;-61
2021/10/14 12:32:55;;;;;;;20.33;14.50;;;13.00;99.90;;;;;;5030922;28;20282;-64
2021/10/14 12:35:28;;;;;;;22.93;15.57;;;12.90;1.00;;;;;;5030367;28;20206;-64
2021/10/14 12:38:08;;;;;;;22.80;15.93;;;13.00;53.10;;;;;;5031026;28;20213;-61
2021/10/14 12:40:42;;;;;;;21.83;14.40;;;13.10;1.00;;;;;;5030597;28;20234;-62